createdAt,value
2023-04-17T00:01:13.101Z,8.45
2023-04-17T00:04:14.933Z,8.41
2023-04-17T00:07:16.622Z,8.34
2023-04-17T00:10:18.508Z,8.26
2023-04-17T00:13:20.111Z,8.20
2023-04-17T00:16:21.757Z,8.16
2023-04-17T00:19:23.423Z,8.15
2023-04-17T00:22:25.302Z,8.14
2023-04-17T00:25:26.857Z,8.14
2023-04-17T00:28:28.479Z,8.11
2023-04-17T00:31:30.462Z,8.07
2023-04-17T00:34:32.085Z,8.00
2023-04-17T00:37:33.745Z,7.96
2023-04-17T00:40:36.046Z,7.94
2023-04-17T00:43:39.049Z,7.93
2023-04-17T00:46:41.038Z,7.88
2023-04-17T00:49:42.724Z,7.83
2023-04-17T00:52:45.258Z,7.80
2023-04-17T00:55:48.343Z,7.78
2023-04-17T00:58:50.574Z,7.76
2023-04-17T01:01:52.184Z,7.70
2023-04-17T01:04:53.996Z,7.66
2023-04-17T01:07:57.215Z,7.66
2023-04-17T01:10:58.774Z,7.68
2023-04-17T01:14:00.330Z,7.70
2023-04-17T01:17:02.374Z,7.72
2023-04-17T01:20:09.114Z,7.73
2023-04-17T01:23:11.631Z,7.73
2023-04-17T01:26:23.184Z,7.71
2023-04-17T01:29:25.027Z,7.72
2023-04-17T01:32:27.175Z,7.70
2023-04-17T01:35:28.903Z,7.68
2023-04-17T01:38:30.776Z,7.67
2023-04-17T01:41:32.321Z,7.68
2023-04-17T01:44:34.099Z,7.69
2023-04-17T01:47:36.017Z,7.66
2023-04-17T01:50:37.833Z,7.60
2023-04-17T01:53:40.002Z,7.57
2023-04-17T01:56:42.491Z,7.53
2023-04-17T01:59:44.085Z,7.50
2023-04-17T02:02:45.929Z,7.52
2023-04-17T02:05:47.696Z,7.54
2023-04-17T02:08:49.344Z,7.58
2023-04-17T02:11:51.126Z,7.60
2023-04-17T02:14:53.797Z,7.59
2023-04-17T02:17:55.424Z,7.60
2023-04-17T02:20:57.177Z,7.61
2023-04-17T02:23:58.738Z,7.61
2023-04-17T02:27:03.098Z,7.62
2023-04-17T02:30:05.099Z,7.63
2023-04-17T02:33:07.440Z,7.65
2023-04-17T02:36:09.397Z,7.65
2023-04-17T02:39:13.835Z,7.61
2023-04-17T02:42:16.638Z,7.55
2023-04-17T02:45:18.229Z,7.52
2023-04-17T02:48:19.899Z,7.50
2023-04-17T02:51:21.531Z,7.50
2023-04-17T02:54:23.213Z,7.49
2023-04-17T02:57:25.708Z,7.47
2023-04-17T03:00:28.432Z,7.46
2023-04-17T03:03:35.221Z,7.44
2023-04-17T03:06:38.270Z,7.43
2023-04-17T03:09:39.856Z,7.42
2023-04-17T03:12:41.689Z,7.37
2023-04-17T03:15:43.399Z,7.36
2023-04-17T03:18:44.998Z,7.37
2023-04-17T03:21:46.931Z,7.36
2023-04-17T03:24:48.593Z,7.31
2023-04-17T03:27:50.269Z,7.30
2023-04-17T03:30:55.022Z,7.30
2023-04-17T03:33:57.019Z,7.32
2023-04-17T03:36:59.479Z,7.36
2023-04-17T03:40:01.464Z,7.37
2023-04-17T03:43:03.452Z,7.34
2023-04-17T03:46:06.383Z,7.36
2023-04-17T03:49:08.139Z,7.40
2023-04-17T03:52:09.996Z,7.43
2023-04-17T03:55:12.273Z,7.48
2023-04-17T03:58:14.949Z,7.55
2023-04-17T04:01:16.670Z,7.60
2023-04-17T04:04:34.157Z,7.66
2023-04-17T04:07:43.166Z,7.68
2023-04-17T04:10:46.250Z,7.68
2023-04-17T04:13:52.279Z,7.65
2023-04-17T04:16:54.121Z,7.60
2023-04-17T04:19:55.844Z,7.55
2023-04-17T04:22:59.378Z,7.51
2023-04-17T04:26:02.127Z,7.52
2023-04-17T04:29:13.943Z,7.57
2023-04-17T04:32:25.632Z,7.65
2023-04-17T04:35:30.309Z,7.75
2023-04-17T04:38:32.734Z,7.87
2023-04-17T04:41:46.402Z,7.96
2023-04-17T04:44:48.498Z,8.05
2023-04-17T04:47:51.186Z,8.10
2023-04-17T04:50:53.154Z,8.16
2023-04-17T04:53:54.789Z,8.22
2023-04-17T04:56:56.994Z,8.30
2023-04-17T04:59:58.853Z,8.37
2023-04-17T05:03:08.184Z,8.43
2023-04-17T05:06:11.282Z,8.48
2023-04-17T05:09:17.079Z,8.55
2023-04-17T05:12:19.697Z,8.61
2023-04-17T05:15:21.376Z,8.65
2023-04-17T05:18:23.244Z,8.70
2023-04-17T05:21:25.283Z,8.75
2023-04-17T05:24:27.053Z,8.83
2023-04-17T05:27:29.016Z,8.94
2023-04-17T05:30:31.051Z,9.07
2023-04-17T05:33:42.154Z,9.23
2023-04-17T05:36:43.752Z,9.37
2023-04-17T05:39:45.461Z,9.47
2023-04-17T05:42:46.969Z,9.56
2023-04-17T05:45:49.094Z,9.62
2023-04-17T05:48:51.225Z,9.69
2023-04-17T05:51:53.301Z,9.76
2023-04-17T05:54:55.337Z,9.83
2023-04-17T05:57:58.250Z,9.91
2023-04-17T06:01:00.285Z,10.00
2023-04-17T06:04:03.054Z,10.06
2023-04-17T06:07:06.268Z,10.12
2023-04-17T06:10:11.751Z,10.19
2023-04-17T06:13:13.523Z,10.23
2023-04-17T06:16:18.514Z,10.29
2023-04-17T06:19:22.511Z,10.36
2023-04-17T06:22:24.187Z,10.43
2023-04-17T06:25:25.953Z,10.49
2023-04-17T06:28:27.520Z,10.56
2023-04-17T06:31:29.846Z,10.66
2023-04-17T06:34:32.100Z,10.74
2023-04-17T06:37:33.959Z,10.82
2023-04-17T06:40:35.674Z,10.91
2023-04-17T06:43:39.621Z,10.98
2023-04-17T06:46:51.724Z,11.08
2023-04-17T06:49:53.331Z,11.21
2023-04-17T06:52:55.085Z,11.35
2023-04-17T06:55:56.669Z,11.48
2023-04-17T06:58:58.502Z,11.61
2023-04-17T07:02:00.597Z,11.73
2023-04-17T07:05:06.495Z,11.84
2023-04-17T07:08:08.071Z,11.97
2023-04-17T07:11:09.709Z,12.08
2023-04-17T07:14:12.900Z,12.21
2023-04-17T07:17:14.699Z,12.33
2023-04-17T07:20:16.608Z,12.43
2023-04-17T07:23:18.278Z,12.53
2023-04-17T07:26:19.917Z,12.64
2023-04-17T07:29:21.561Z,12.75
2023-04-17T07:32:24.754Z,12.86
2023-04-17T07:35:26.439Z,12.97
2023-04-17T07:38:28.049Z,13.08
2023-04-17T07:41:29.657Z,13.17
2023-04-17T07:44:31.413Z,13.29
2023-04-17T07:47:32.997Z,13.41
2023-04-17T07:50:34.534Z,13.52
2023-04-17T07:53:37.328Z,13.65
2023-04-17T07:56:40.018Z,13.79
2023-04-17T07:59:41.638Z,13.96
2023-04-17T08:02:43.639Z,14.12
2023-04-17T08:05:45.375Z,14.31
2023-04-17T08:08:47.713Z,14.48
2023-04-17T08:11:57.044Z,14.64
2023-04-17T08:14:59.849Z,14.79
2023-04-17T08:18:01.834Z,14.96
2023-04-17T08:21:04.346Z,15.14
2023-04-17T08:24:06.299Z,15.29
2023-04-17T08:27:08.075Z,15.42
2023-04-17T08:30:13.483Z,15.54
2023-04-17T08:33:18.223Z,15.63
2023-04-17T08:36:19.816Z,15.72
2023-04-17T08:39:21.409Z,15.80
2023-04-17T08:42:23.498Z,15.86
2023-04-17T08:45:25.388Z,15.94
2023-04-17T08:48:27.250Z,15.98
2023-04-17T08:51:28.906Z,16.02
2023-04-17T08:54:31.827Z,16.03
2023-04-17T08:57:33.442Z,16.00
2023-04-17T09:00:40.175Z,15.95
2023-04-17T09:03:43.197Z,15.92
2023-04-17T09:06:54.665Z,15.91
2023-04-17T09:09:56.973Z,15.88
2023-04-17T09:13:00.353Z,15.83
2023-04-17T09:16:08.476Z,15.80
2023-04-17T09:19:11.068Z,15.77
2023-04-17T09:22:22.721Z,15.79
2023-04-17T09:25:26.346Z,15.83
2023-04-17T09:28:30.188Z,15.87
2023-04-17T09:31:34.870Z,15.88
2023-04-17T09:34:40.911Z,15.88
2023-04-17T09:37:52.317Z,15.93
2023-04-17T09:40:53.913Z,16.06
2023-04-17T09:44:05.529Z,16.26
2023-04-17T09:47:08.193Z,16.55
2023-04-17T09:50:09.996Z,16.85
2023-04-17T09:53:11.649Z,17.04
2023-04-17T09:56:13.696Z,17.19
2023-04-17T09:59:16.205Z,17.32
2023-04-17T10:02:19.409Z,17.44
2023-04-17T10:05:22.580Z,17.63
2023-04-17T10:08:24.234Z,17.80
2023-04-17T10:11:30.225Z,17.97
2023-04-17T10:14:33.510Z,18.12
2023-04-17T10:17:35.457Z,18.25
2023-04-17T10:20:38.837Z,18.40
2023-04-17T10:23:40.524Z,18.60
2023-04-17T10:26:42.139Z,18.72
2023-04-17T10:29:58.094Z,18.74
2023-04-17T10:33:20.640Z,18.77
2023-04-17T10:36:40.590Z,18.80
2023-04-17T10:39:51.582Z,18.93
2023-04-17T10:43:17.912Z,19.09
2023-04-17T10:46:19.569Z,19.26
2023-04-17T10:49:21.562Z,19.38
2023-04-17T10:52:32.657Z,19.43
2023-04-17T10:55:34.278Z,19.55
2023-04-17T10:58:38.328Z,19.63
2023-04-17T11:01:49.208Z,19.77
2023-04-17T11:05:06.384Z,19.84
2023-04-17T11:08:08.046Z,20.01
2023-04-17T11:11:12.717Z,20.14
2023-04-17T11:14:18.979Z,20.29
2023-04-17T11:17:21.547Z,20.44
2023-04-17T11:20:24.832Z,20.45
2023-04-17T11:23:30.277Z,20.46
2023-04-17T11:26:31.861Z,20.49
2023-04-17T11:29:33.416Z,20.53
2023-04-17T11:32:37.886Z,20.65
2023-04-17T11:35:41.308Z,20.84
2023-04-17T11:38:49.147Z,21.07
2023-04-17T11:41:51.911Z,21.18
2023-04-17T11:44:53.496Z,21.23
2023-04-17T11:47:55.122Z,21.25
2023-04-17T11:51:01.425Z,21.17
2023-04-17T11:54:03.195Z,21.12
2023-04-17T11:57:07.105Z,21.00
2023-04-17T12:00:13.381Z,20.85
2023-04-17T12:03:37.040Z,20.83
2023-04-17T12:06:38.881Z,20.92
2023-04-17T12:09:41.035Z,21.00
2023-04-17T12:12:45.208Z,21.06
2023-04-17T12:15:46.937Z,21.10
2023-04-17T12:18:48.596Z,21.18
2023-04-17T12:21:52.057Z,21.18
2023-04-17T12:24:53.594Z,21.19
2023-04-17T12:27:57.056Z,21.23
2023-04-17T12:30:58.573Z,21.21
2023-04-17T12:34:00.408Z,21.20
2023-04-17T12:37:02.008Z,21.15
2023-04-17T12:40:04.364Z,21.09
2023-04-17T12:43:08.441Z,21.05
2023-04-17T12:46:10.146Z,20.97
2023-04-17T12:49:12.197Z,20.93
2023-04-17T12:52:13.972Z,20.88
2023-04-17T12:55:15.772Z,20.84
2023-04-17T12:58:17.416Z,20.80
2023-04-17T13:01:18.985Z,20.65
2023-04-17T13:04:21.147Z,20.52
2023-04-17T13:07:23.086Z,20.46
2023-04-17T13:10:25.287Z,20.45
2023-04-17T13:13:26.924Z,20.48
2023-04-17T13:16:28.486Z,20.59
2023-04-17T13:19:32.121Z,20.60
2023-04-17T13:22:33.793Z,20.61
2023-04-17T13:25:35.665Z,20.69
2023-04-17T13:28:37.234Z,20.79
2023-04-17T13:31:38.792Z,20.90
2023-04-17T13:34:40.486Z,21.07
2023-04-17T13:37:42.058Z,21.12
2023-04-17T13:40:43.750Z,21.13
2023-04-17T13:43:45.601Z,21.08
2023-04-17T13:46:47.336Z,21.05
2023-04-17T13:49:49.120Z,21.02
2023-04-17T13:52:51.153Z,20.98
2023-04-17T13:55:52.773Z,20.93
2023-04-17T13:58:55.030Z,20.88
2023-04-17T14:01:56.685Z,20.81
2023-04-17T14:04:58.555Z,20.74
2023-04-17T14:08:00.291Z,20.71
2023-04-17T14:11:02.067Z,20.73
2023-04-17T14:14:03.692Z,20.73
2023-04-17T14:17:05.369Z,20.64
2023-04-17T14:20:07.819Z,20.54
2023-04-17T14:23:09.390Z,20.45
2023-04-17T14:26:12.283Z,20.31
2023-04-17T14:29:14.537Z,20.21
2023-04-17T14:32:16.385Z,20.12
2023-04-17T14:35:18.061Z,20.01
2023-04-17T14:38:20.029Z,19.85
2023-04-17T14:41:21.610Z,19.70
2023-04-17T14:44:23.237Z,19.61
2023-04-17T14:47:24.962Z,19.55
2023-04-17T14:50:26.658Z,19.52
2023-04-17T14:53:28.607Z,19.49
2023-04-17T14:56:30.388Z,19.43
2023-04-17T14:59:32.197Z,19.39
2023-04-17T15:02:38.553Z,19.35
2023-04-17T15:05:40.671Z,19.29
2023-04-17T15:08:42.661Z,19.27
2023-04-17T15:11:44.336Z,19.27
2023-04-17T15:14:45.909Z,19.28
2023-04-17T15:17:47.459Z,19.32
2023-04-17T15:20:49.023Z,19.32
2023-04-17T15:23:50.667Z,19.38
2023-04-17T15:26:52.257Z,19.46
2023-04-17T15:29:53.943Z,19.56
2023-04-17T15:32:55.705Z,19.68
2023-04-17T15:35:58.734Z,19.81
2023-04-17T15:39:00.946Z,19.90
2023-04-17T15:42:02.591Z,19.95
2023-04-17T15:45:04.684Z,20.00
2023-04-17T15:48:06.458Z,19.97
2023-04-17T15:51:08.148Z,19.94
2023-04-17T15:54:11.986Z,19.89
2023-04-17T15:57:13.626Z,19.80
2023-04-17T16:00:15.690Z,19.70
2023-04-17T16:03:17.939Z,19.64
2023-04-17T16:06:20.468Z,19.59
2023-04-17T16:09:24.503Z,19.55
2023-04-17T16:12:28.128Z,19.48
2023-04-17T16:15:30.326Z,19.42
2023-04-17T16:18:31.933Z,19.37
2023-04-17T16:21:33.590Z,19.33
2023-04-17T16:24:35.234Z,19.27
2023-04-17T16:27:37.080Z,19.19
2023-04-17T16:30:38.696Z,19.13
2023-04-17T16:33:40.796Z,19.08
2023-04-17T16:36:45.356Z,19.01
2023-04-17T16:39:47.397Z,18.94
2023-04-17T16:42:49.032Z,18.90
2023-04-17T16:45:50.748Z,18.87
2023-04-17T16:48:53.452Z,18.83
2023-04-17T16:51:55.162Z,18.77
2023-04-17T16:54:56.748Z,18.69
2023-04-17T16:58:00.222Z,18.63
2023-04-17T17:01:01.801Z,18.59
2023-04-17T17:04:03.515Z,18.53
2023-04-17T17:07:05.143Z,18.50
2023-04-17T17:10:07.572Z,18.46
2023-04-17T17:13:09.214Z,18.41
2023-04-17T17:16:10.832Z,18.33
2023-04-17T17:19:12.600Z,18.27
2023-04-17T17:22:14.342Z,18.20
2023-04-17T17:25:15.994Z,18.12
2023-04-17T17:28:17.616Z,18.04
2023-04-17T17:31:19.484Z,17.96
2023-04-17T17:34:26.707Z,17.88
2023-04-17T17:37:28.688Z,17.79
2023-04-17T17:40:30.410Z,17.70
2023-04-17T17:43:32.061Z,17.59
2023-04-17T17:46:35.955Z,17.47
2023-04-17T17:49:37.590Z,17.33
2023-04-17T17:52:39.245Z,17.19
2023-04-17T17:55:40.878Z,17.01
2023-04-17T17:58:42.428Z,16.82
2023-04-17T18:01:44.044Z,16.64
2023-04-17T18:04:45.714Z,16.49
2023-04-17T18:07:47.402Z,16.34
2023-04-17T18:10:48.961Z,16.20
2023-04-17T18:13:51.182Z,16.08
2023-04-17T18:16:52.945Z,15.98
2023-04-17T18:19:54.550Z,15.89
2023-04-17T18:22:56.312Z,15.78
2023-04-17T18:26:02.300Z,15.67
2023-04-17T18:29:03.962Z,15.54
2023-04-17T18:32:05.639Z,15.39
2023-04-17T18:35:07.636Z,15.25
2023-04-17T18:38:09.260Z,15.11
2023-04-17T18:41:10.869Z,14.98
2023-04-17T18:44:15.421Z,14.88
2023-04-17T18:47:17.152Z,14.77
2023-04-17T18:50:18.761Z,14.67
2023-04-17T18:53:20.384Z,14.55
2023-04-17T18:56:22.924Z,14.43
2023-04-17T18:59:26.211Z,14.32
2023-04-17T19:02:28.918Z,14.21
2023-04-17T19:05:31.099Z,14.08
2023-04-17T19:08:33.776Z,13.98
2023-04-17T19:11:35.651Z,13.89
2023-04-17T19:14:37.277Z,13.78
2023-04-17T19:17:39.439Z,13.68
2023-04-17T19:20:42.525Z,13.58
2023-04-17T19:23:44.269Z,13.51
2023-04-17T19:26:46.085Z,13.47
2023-04-17T19:29:48.811Z,13.43
2023-04-17T19:32:50.739Z,13.39
2023-04-17T19:35:53.712Z,13.37
2023-04-17T19:38:59.158Z,13.37
2023-04-17T19:42:01.529Z,13.38
2023-04-17T19:45:03.235Z,13.38
2023-04-17T19:48:05.359Z,13.39
2023-04-17T19:51:10.717Z,13.39
2023-04-17T19:54:13.791Z,13.35
2023-04-17T19:57:15.687Z,13.29
2023-04-17T20:00:17.845Z,13.25
2023-04-17T20:03:19.833Z,13.20
2023-04-17T20:06:22.930Z,13.15
2023-04-17T20:09:24.736Z,13.10
2023-04-17T20:12:26.352Z,13.01
2023-04-17T20:15:29.655Z,12.93
2023-04-17T20:18:31.618Z,12.86
2023-04-17T20:21:33.187Z,12.79
2023-04-17T20:24:35.644Z,12.69
2023-04-17T20:27:37.277Z,12.57
2023-04-17T20:30:39.545Z,12.46
2023-04-17T20:33:41.615Z,12.37
2023-04-17T20:36:43.678Z,12.29
2023-04-17T20:39:45.379Z,12.20
2023-04-17T20:42:48.248Z,12.13
2023-04-17T20:45:53.083Z,12.05
2023-04-17T20:48:54.978Z,11.97
2023-04-17T20:51:56.641Z,11.88
2023-04-17T20:54:58.500Z,11.80
2023-04-17T20:58:00.063Z,11.72
2023-04-17T21:01:02.510Z,11.61
2023-04-17T21:04:04.281Z,11.48
2023-04-17T21:07:06.099Z,11.37
2023-04-17T21:10:08.793Z,11.32
2023-04-17T21:13:10.684Z,11.28
2023-04-17T21:16:13.893Z,11.25
2023-04-17T21:19:15.765Z,11.27
2023-04-17T21:22:17.723Z,11.30
2023-04-17T21:25:19.365Z,11.33
2023-04-17T21:28:21.209Z,11.34
2023-04-17T21:31:23.544Z,11.34
2023-04-17T21:34:25.788Z,11.32
2023-04-17T21:37:27.502Z,11.27
2023-04-17T21:40:32.979Z,11.21
2023-04-17T21:43:35.522Z,11.16
2023-04-17T21:46:38.311Z,11.11
2023-04-17T21:49:39.988Z,11.08
2023-04-17T21:52:41.676Z,11.03
2023-04-17T21:55:43.316Z,10.98
2023-04-17T21:58:45.121Z,10.94
2023-04-17T22:01:46.949Z,10.92
2023-04-17T22:04:48.827Z,10.90
2023-04-17T22:07:54.783Z,10.91
2023-04-17T22:10:57.339Z,10.90
2023-04-17T22:13:59.400Z,10.90
2023-04-17T22:17:01.298Z,10.90
2023-04-17T22:20:03.491Z,10.90
2023-04-17T22:23:05.244Z,10.91
2023-04-17T22:26:07.033Z,10.87
2023-04-17T22:29:08.830Z,10.85
2023-04-17T22:32:10.636Z,10.80
2023-04-17T22:35:13.953Z,10.73
2023-04-17T22:38:16.189Z,10.68
2023-04-17T22:41:17.952Z,10.63
2023-04-17T22:44:19.746Z,10.61
2023-04-17T22:47:21.722Z,10.62
2023-04-17T22:50:23.854Z,10.62
2023-04-17T22:53:25.588Z,10.60
2023-04-17T22:56:27.462Z,10.59
2023-04-17T22:59:29.941Z,10.58
2023-04-17T23:02:31.807Z,10.58
2023-04-17T23:05:33.730Z,10.57
2023-04-17T23:08:35.526Z,10.52
2023-04-17T23:11:37.508Z,10.39
2023-04-17T23:14:39.221Z,10.23
2023-04-17T23:17:41.049Z,10.10
2023-04-17T23:20:42.875Z,10.01
2023-04-17T23:23:48.184Z,9.92
2023-04-17T23:26:50.436Z,9.84
2023-04-17T23:29:52.225Z,9.75
2023-04-17T23:32:55.052Z,9.66
2023-04-17T23:35:56.906Z,9.59
2023-04-17T23:38:58.623Z,9.58
2023-04-17T23:42:05.740Z,9.59
2023-04-17T23:45:08.459Z,9.62
2023-04-17T23:48:10.234Z,9.64
2023-04-17T23:51:11.967Z,9.62
2023-04-17T23:54:13.907Z,9.62
2023-04-17T23:57:15.870Z,9.66
